createdAt,value
2018-07-19T00:00:17.988Z,100738.66
2018-07-19T00:02:46.436Z,100737.77
2018-07-19T00:05:14.817Z,100741.22
2018-07-19T00:07:43.251Z,100737.69
2018-07-19T00:10:11.655Z,100731.00
2018-07-19T00:12:40.182Z,100734.94
2018-07-19T00:15:08.657Z,100731.89
2018-07-19T00:17:37.256Z,100736.55
2018-07-19T00:20:06.528Z,100736.06
2018-07-19T00:22:35.004Z,100735.17
2018-07-19T00:25:03.420Z,100734.39
2018-07-19T00:27:31.894Z,100736.80
2018-07-19T00:30:00.279Z,100737.59
2018-07-19T00:32:28.688Z,100739.84
2018-07-19T00:34:57.167Z,100735.64
2018-07-19T00:37:25.543Z,100728.63
2018-07-19T00:39:53.955Z,100728.13
2018-07-19T00:42:22.366Z,100728.45
2018-07-19T00:44:50.884Z,100732.23
2018-07-19T00:47:19.275Z,100730.24
2018-07-19T00:49:47.654Z,100732.55
2018-07-19T00:52:16.063Z,100729.69
2018-07-19T00:54:44.521Z,100729.35
2018-07-19T00:57:13.023Z,100729.94
2018-07-19T00:59:41.510Z,100733.86
2018-07-19T01:02:10.040Z,100732.13
2018-07-19T01:04:38.455Z,100738.35
2018-07-19T01:07:06.909Z,100740.86
2018-07-19T01:09:35.309Z,100737.40
2018-07-19T01:12:03.835Z,100743.06
2018-07-19T01:14:32.318Z,100741.48
2018-07-19T01:17:00.778Z,100740.12
2018-07-19T01:19:29.233Z,100748.19
2018-07-19T01:21:57.667Z,100741.45
2018-07-19T01:24:26.091Z,100740.39
2018-07-19T01:26:54.621Z,100740.88
2018-07-19T01:29:23.005Z,100733.69
2018-07-19T01:31:51.428Z,100729.53
2018-07-19T01:34:19.938Z,100739.16
2018-07-19T01:36:48.417Z,100739.56
2018-07-19T01:39:16.862Z,100738.84
2018-07-19T01:42:24.357Z,100735.55
2018-07-19T01:44:52.761Z,100737.16
2018-07-19T01:47:21.323Z,100738.45
2018-07-19T01:49:49.697Z,100735.69
2018-07-19T01:52:18.092Z,100736.72
2018-07-19T01:54:46.508Z,100728.33
2018-07-19T01:57:16.015Z,100728.82
2018-07-19T01:59:45.037Z,100731.55
2018-07-19T02:02:13.756Z,100728.13
2018-07-19T02:04:42.411Z,100737.61
2018-07-19T02:07:10.988Z,100733.96
2018-07-19T02:09:39.538Z,100740.30
2018-07-19T02:12:08.205Z,100736.92
2018-07-19T02:14:36.637Z,100733.61
2018-07-19T02:17:05.119Z,100740.89
2018-07-19T02:19:33.567Z,100739.64
2018-07-19T02:22:02.114Z,100737.73
2018-07-19T02:24:30.565Z,100734.81
2018-07-19T02:26:59.057Z,100734.56
2018-07-19T02:29:27.531Z,100736.86
2018-07-19T02:31:55.954Z,100738.33
2018-07-19T02:34:24.450Z,100736.34
2018-07-19T02:36:52.941Z,100740.20
2018-07-19T02:39:21.368Z,100738.12
2018-07-19T02:41:49.797Z,100736.68
2018-07-19T02:44:18.249Z,100743.16
2018-07-19T02:46:46.701Z,100739.69
2018-07-19T02:49:15.109Z,100744.22
2018-07-19T02:51:44.087Z,100748.56
2018-07-19T02:54:12.773Z,100735.37
2018-07-19T02:56:41.241Z,100744.80
2018-07-19T02:59:09.739Z,100742.65
2018-07-19T03:01:38.160Z,100733.25
2018-07-19T03:04:06.635Z,100734.98
2018-07-19T03:06:35.024Z,100739.97
2018-07-19T03:09:03.613Z,100732.83
2018-07-19T03:11:31.994Z,100737.88
2018-07-19T03:14:00.430Z,100740.19
2018-07-19T03:16:28.789Z,100739.00
2018-07-19T03:18:57.225Z,100733.23
2018-07-19T03:21:25.654Z,100739.66
2018-07-19T03:23:54.296Z,100735.23
2018-07-19T03:26:22.737Z,100735.37
2018-07-19T03:28:51.155Z,100735.50
2018-07-19T03:31:19.856Z,100737.56
2018-07-19T03:33:48.277Z,100736.28
2018-07-19T03:36:16.696Z,100744.12
2018-07-19T03:38:45.078Z,100735.95
2018-07-19T03:41:13.510Z,100738.52
2018-07-19T03:43:41.936Z,100737.03
2018-07-19T03:46:10.466Z,100745.70
2018-07-19T03:48:38.858Z,100743.30
2018-07-19T03:51:07.335Z,100740.59
2018-07-19T03:53:35.883Z,100740.60
2018-07-19T03:56:04.433Z,100736.38
2018-07-19T03:58:32.820Z,100748.65
2018-07-19T04:01:01.271Z,100745.63
2018-07-19T04:03:29.656Z,100751.94
2018-07-19T04:05:58.266Z,100751.72
2018-07-19T04:08:26.757Z,100752.05
2018-07-19T04:10:55.158Z,100752.95
2018-07-19T04:13:23.514Z,100753.91
2018-07-19T04:15:51.930Z,100752.14
2018-07-19T04:18:20.417Z,100750.30
2018-07-19T04:20:48.935Z,100758.57
2018-07-19T04:23:17.420Z,100754.88
2018-07-19T04:25:45.791Z,100763.73
2018-07-19T04:28:14.211Z,100761.49
2018-07-19T04:30:42.676Z,100763.53
2018-07-19T04:33:11.110Z,100764.37
2018-07-19T04:35:40.029Z,100769.54
2018-07-19T04:38:08.433Z,100763.74
2018-07-19T04:40:36.883Z,100769.70
2018-07-19T04:43:05.403Z,100769.96
2018-07-19T04:45:34.765Z,100774.62
2018-07-19T04:48:03.208Z,100774.09
2018-07-19T04:50:31.736Z,100775.67
2018-07-19T04:53:00.220Z,100773.37
2018-07-19T04:55:28.710Z,100771.24
2018-07-19T04:57:57.199Z,100777.91
2018-07-19T05:00:25.778Z,100785.92
2018-07-19T05:02:54.214Z,100782.75
2018-07-19T05:05:22.832Z,100780.91
2018-07-19T05:07:51.236Z,100777.79
2018-07-19T05:10:19.691Z,100781.11
2018-07-19T05:12:48.151Z,100782.20
2018-07-19T05:15:16.656Z,100780.27
2018-07-19T05:17:44.990Z,100784.41
2018-07-19T05:20:13.463Z,100779.16
2018-07-19T05:22:41.881Z,100783.63
2018-07-19T05:25:10.364Z,100779.23
2018-07-19T05:27:38.751Z,100785.23
2018-07-19T05:30:07.215Z,100789.55
2018-07-19T05:32:35.615Z,100785.31
2018-07-19T05:35:04.076Z,100783.47
2018-07-19T05:37:32.506Z,100782.87
2018-07-19T05:40:01.044Z,100784.31
2018-07-19T05:42:29.593Z,100781.52
2018-07-19T05:44:58.042Z,100783.98
2018-07-19T05:47:26.555Z,100783.22
2018-07-19T05:49:55.046Z,100784.20
2018-07-19T05:52:23.545Z,100781.55
2018-07-19T05:54:52.040Z,100789.66
2018-07-19T05:57:20.734Z,100785.53
2018-07-19T05:59:49.204Z,100783.16
2018-07-19T06:02:17.613Z,100780.69
2018-07-19T06:04:46.006Z,100790.59
2018-07-19T06:07:14.402Z,100788.43
2018-07-19T06:09:42.971Z,100787.53
2018-07-19T06:12:11.258Z,100786.81
2018-07-19T06:14:39.732Z,100790.40
2018-07-19T06:17:08.142Z,100793.91
2018-07-19T06:19:36.679Z,100797.98
2018-07-19T06:22:05.048Z,100798.44
2018-07-19T06:24:33.447Z,100799.03
2018-07-19T06:27:01.928Z,100803.79
2018-07-19T06:29:31.164Z,100791.13
2018-07-19T06:31:59.737Z,100797.70
2018-07-19T06:34:28.105Z,100796.73
2018-07-19T06:36:56.520Z,100799.73
2018-07-19T06:39:25.086Z,100797.40
2018-07-19T06:41:53.467Z,100796.06
2018-07-19T06:44:21.958Z,100792.23
2018-07-19T06:46:50.449Z,100796.14
2018-07-19T06:49:18.923Z,100793.84
2018-07-19T06:51:47.287Z,100796.17
2018-07-19T06:54:15.745Z,100800.50
2018-07-19T06:56:44.148Z,100802.80
2018-07-19T06:59:12.563Z,100798.02
2018-07-19T07:01:40.972Z,100798.34
2018-07-19T07:04:09.370Z,100803.73
2018-07-19T07:06:37.805Z,100798.50
2018-07-19T07:09:08.713Z,100799.98
2018-07-19T07:11:37.185Z,100806.80
2018-07-19T07:14:05.906Z,100804.83
2018-07-19T07:16:34.358Z,100801.80
2018-07-19T07:19:02.870Z,100797.33
2018-07-19T07:21:31.621Z,100800.64
2018-07-19T07:24:00.411Z,100798.17
2018-07-19T07:26:28.973Z,100804.03
2018-07-19T07:28:57.475Z,100797.95
2018-07-19T07:31:25.992Z,100806.17
2018-07-19T07:33:54.487Z,100800.21
2018-07-19T07:36:22.975Z,100801.37
2018-07-19T07:38:51.593Z,100804.68
2018-07-19T07:41:19.923Z,100800.41
2018-07-19T07:43:48.374Z,100800.38
2018-07-19T07:46:17.158Z,100795.31
2018-07-19T07:48:45.671Z,100797.06
2018-07-19T07:51:14.168Z,100795.70
2018-07-19T07:53:42.529Z,100795.63
2018-07-19T07:56:11.070Z,100791.65
2018-07-19T07:58:39.505Z,100792.08
2018-07-19T08:01:08.016Z,100799.05
2018-07-19T08:03:36.422Z,100793.83
2018-07-19T08:06:04.872Z,100798.25
2018-07-19T08:08:33.352Z,100791.25
2018-07-19T08:11:01.807Z,100792.77
2018-07-19T08:13:30.242Z,100793.97
2018-07-19T08:15:58.689Z,100794.64
2018-07-19T08:18:27.092Z,100790.99
2018-07-19T08:20:55.593Z,100783.55
2018-07-19T08:23:23.977Z,100781.45
2018-07-19T08:25:52.356Z,100787.71
2018-07-19T08:28:20.762Z,100779.79
2018-07-19T08:30:49.327Z,100783.77
2018-07-19T08:33:17.771Z,100782.81
2018-07-19T08:35:46.278Z,100779.28
2018-07-19T08:38:14.680Z,100777.24
2018-07-19T08:40:43.098Z,100771.85
2018-07-19T08:43:11.551Z,100770.07
2018-07-19T08:45:40.026Z,100770.33
2018-07-19T08:48:08.464Z,100778.22
2018-07-19T08:50:37.033Z,100777.66
2018-07-19T08:53:05.475Z,100776.96
2018-07-19T08:55:33.843Z,100779.39
2018-07-19T08:58:02.322Z,100779.16
2018-07-19T09:00:30.719Z,100781.27
2018-07-19T09:02:59.175Z,100782.48
2018-07-19T09:05:27.622Z,100778.23
2018-07-19T09:07:56.051Z,100776.36
2018-07-19T09:10:24.441Z,100777.60
2018-07-19T09:12:52.826Z,100779.29
2018-07-19T09:15:21.209Z,100779.32
2018-07-19T09:17:49.630Z,100782.08
2018-07-19T09:20:18.016Z,100783.75
2018-07-19T09:22:46.428Z,100778.63
2018-07-19T09:25:14.796Z,100782.14
2018-07-19T09:27:43.211Z,100792.46
2018-07-19T09:30:11.610Z,100777.34
2018-07-19T09:32:40.172Z,100783.95
2018-07-19T09:35:08.545Z,100775.23
2018-07-19T09:37:37.043Z,100772.17
2018-07-19T09:40:05.636Z,100768.92
2018-07-19T09:42:34.077Z,100776.03
2018-07-19T09:45:02.526Z,100766.14
2018-07-19T09:47:31.667Z,100766.48
2018-07-19T09:50:00.191Z,100771.09
2018-07-19T09:52:28.651Z,100764.83
2018-07-19T09:54:59.141Z,100764.56
2018-07-19T09:57:28.631Z,100762.96
2018-07-19T09:59:57.132Z,100761.58
2018-07-19T10:02:25.789Z,100764.84
2018-07-19T10:04:54.345Z,100766.55
2018-07-19T10:07:23.101Z,100766.61
2018-07-19T10:09:51.552Z,100763.72
2018-07-19T10:12:20.212Z,100761.25
2018-07-19T10:14:49.118Z,100762.05
2018-07-19T10:17:17.868Z,100757.64
2018-07-19T10:19:46.332Z,100764.48
2018-07-19T10:22:14.768Z,100766.48
2018-07-19T10:24:43.201Z,100761.59
2018-07-19T10:27:11.644Z,100764.48
2018-07-19T10:29:40.163Z,100763.66
2018-07-19T10:32:08.573Z,100766.52
2018-07-19T10:34:36.909Z,100760.72
2018-07-19T10:37:05.277Z,100762.00
2018-07-19T10:39:33.685Z,100759.43
2018-07-19T10:42:02.100Z,100766.58
2018-07-19T10:44:30.496Z,100765.30
2018-07-19T10:46:58.927Z,100763.27
2018-07-19T10:49:27.356Z,100756.96
2018-07-19T10:51:55.757Z,100758.92
2018-07-19T10:54:24.148Z,100755.23
2018-07-19T10:56:52.519Z,100744.55
2018-07-19T10:59:20.929Z,100750.30
2018-07-19T11:01:49.368Z,100737.91
2018-07-19T11:04:17.805Z,100746.28
2018-07-19T11:06:46.217Z,100743.73
2018-07-19T11:09:14.631Z,100740.50
2018-07-19T11:11:43.112Z,100743.20
2018-07-19T11:14:11.987Z,100738.66
2018-07-19T11:16:40.504Z,100738.39
2018-07-19T11:19:08.931Z,100738.32
2018-07-19T11:21:37.378Z,100724.47
2018-07-19T11:24:06.061Z,100732.03
2018-07-19T11:26:34.491Z,100728.81
2018-07-19T11:29:03.559Z,100724.13
2018-07-19T11:31:36.161Z,100730.42
2018-07-19T11:34:04.995Z,100727.34
2018-07-19T11:36:33.450Z,100719.45
2018-07-19T11:39:01.821Z,100729.27
2018-07-19T11:41:30.216Z,100724.72
2018-07-19T11:43:58.652Z,100723.52
2018-07-19T11:46:27.078Z,100723.77
2018-07-19T11:48:55.501Z,100720.55
2018-07-19T11:51:23.914Z,100726.86
2018-07-19T11:53:52.310Z,100717.32
2018-07-19T11:56:20.865Z,100720.50
2018-07-19T11:58:49.365Z,100714.88
2018-07-19T12:01:17.778Z,100708.74
2018-07-19T12:03:46.157Z,100702.87
2018-07-19T12:06:14.577Z,100710.10
2018-07-19T12:08:42.978Z,100704.75
2018-07-19T12:11:11.417Z,100701.17
2018-07-19T12:13:39.997Z,100694.76
2018-07-19T12:16:08.468Z,100692.98
2018-07-19T12:18:36.884Z,100697.94
2018-07-19T12:21:05.309Z,100692.21
2018-07-19T12:23:33.697Z,100682.83
2018-07-19T12:26:02.077Z,100688.44
2018-07-19T12:28:30.531Z,100681.98
2018-07-19T12:30:58.972Z,100695.44
2018-07-19T12:33:27.419Z,100689.98
2018-07-19T12:35:55.803Z,100686.56
2018-07-19T12:38:24.168Z,100685.92
2018-07-19T12:40:52.533Z,100685.61
2018-07-19T12:43:21.270Z,100677.37
2018-07-19T12:45:49.652Z,100685.00
2018-07-19T12:48:18.086Z,100689.17
2018-07-19T12:50:46.523Z,100683.59
2018-07-19T12:53:15.050Z,100672.85
2018-07-19T12:55:43.440Z,100676.18
2018-07-19T12:58:11.894Z,100674.13
2018-07-19T13:00:40.281Z,100681.48
2018-07-19T13:03:08.792Z,100673.66
2018-07-19T13:05:37.212Z,100677.84
2018-07-19T13:08:05.694Z,100672.37
2018-07-19T13:10:34.131Z,100667.33
2018-07-19T13:13:02.549Z,100664.31
2018-07-19T13:15:30.968Z,100659.95
2018-07-19T13:17:59.339Z,100666.76
2018-07-19T13:20:27.749Z,100664.94
2018-07-19T13:22:56.126Z,100661.71
2018-07-19T13:25:24.544Z,100656.85
2018-07-19T13:27:52.991Z,100660.44
2018-07-19T13:30:22.072Z,100668.41
2018-07-19T13:32:51.188Z,100670.08
2018-07-19T13:35:19.641Z,100665.17
2018-07-19T13:37:48.006Z,100666.00
2018-07-19T13:40:16.409Z,100656.47
2018-07-19T13:42:44.904Z,100661.57
2018-07-19T13:45:13.312Z,100653.95
2018-07-19T13:47:41.689Z,100656.20
2018-07-19T13:50:10.110Z,100656.81
2018-07-19T13:52:49.701Z,100655.18
2018-07-19T13:55:18.152Z,100650.53
2018-07-19T13:57:46.548Z,100643.72
2018-07-19T14:00:14.875Z,100642.86
2018-07-19T14:02:43.345Z,100644.02
2018-07-19T14:05:11.741Z,100647.02
2018-07-19T14:07:40.125Z,100638.61
2018-07-19T14:10:08.615Z,100640.37
2018-07-19T14:12:37.009Z,100634.30
2018-07-19T14:15:06.105Z,100636.74
2018-07-19T14:17:34.481Z,100630.03
2018-07-19T14:20:02.903Z,100635.88
2018-07-19T14:22:31.268Z,100635.80
2018-07-19T14:24:59.674Z,100622.19
2018-07-19T14:27:28.142Z,100625.38
2018-07-19T14:29:56.471Z,100626.95
2018-07-19T14:32:24.840Z,100619.41
2018-07-19T14:34:53.237Z,100617.61
2018-07-19T14:37:21.717Z,100623.84
2018-07-19T14:39:50.145Z,100618.59
2018-07-19T14:42:18.550Z,100616.19
2018-07-19T14:44:46.978Z,100608.93
2018-07-19T14:47:15.440Z,100610.69
2018-07-19T14:49:43.849Z,100604.26
2018-07-19T14:52:12.283Z,100604.99
2018-07-19T14:54:40.657Z,100598.53
2018-07-19T14:57:09.040Z,100607.35
2018-07-19T14:59:37.447Z,100608.44
2018-07-19T15:02:05.971Z,100606.72
2018-07-19T15:04:34.479Z,100602.14
2018-07-19T15:07:02.937Z,100606.56
2018-07-19T15:09:31.422Z,100604.30
2018-07-19T15:11:59.809Z,100603.19
2018-07-19T15:14:28.258Z,100602.95
2018-07-19T15:16:56.650Z,100593.66
2018-07-19T15:19:25.070Z,100598.77
2018-07-19T15:21:53.444Z,100593.38
2018-07-19T15:24:21.832Z,100597.41
2018-07-19T15:26:50.239Z,100597.08
2018-07-19T15:29:18.667Z,100591.06
2018-07-19T15:31:47.118Z,100598.34
2018-07-19T15:34:15.603Z,100592.45
2018-07-19T15:36:44.027Z,100592.07
2018-07-19T15:39:12.410Z,100584.91
2018-07-19T15:41:40.880Z,100590.80
2018-07-19T15:44:09.275Z,100584.91
2018-07-19T15:46:37.736Z,100585.03
2018-07-19T15:49:06.144Z,100588.35
2018-07-19T15:51:34.558Z,100578.34
2018-07-19T15:54:03.021Z,100582.59
2018-07-19T15:56:31.433Z,100578.48
2018-07-19T15:58:59.829Z,100580.77
2018-07-19T16:01:28.204Z,100574.20
2018-07-19T16:03:56.664Z,100576.63
2018-07-19T16:06:25.049Z,100577.25
2018-07-19T16:08:53.536Z,100578.38
2018-07-19T16:11:22.000Z,100576.63
2018-07-19T16:13:50.384Z,100568.08
2018-07-19T16:16:18.790Z,100568.23
2018-07-19T16:18:47.208Z,100563.92
2018-07-19T16:21:15.689Z,100565.45
2018-07-19T16:23:44.138Z,100573.11
2018-07-19T16:26:12.600Z,100571.68
2018-07-19T16:28:41.000Z,100569.77
2018-07-19T16:31:09.669Z,100564.16
2018-07-19T16:33:38.065Z,100568.70
2018-07-19T16:36:06.526Z,100564.92
2018-07-19T16:38:35.059Z,100567.98
2018-07-19T16:41:03.495Z,100568.38
2018-07-19T16:43:31.920Z,100569.91
2018-07-19T16:46:00.389Z,100573.96
2018-07-19T16:48:28.788Z,100573.36
2018-07-19T16:50:57.274Z,100568.38
2018-07-19T16:53:26.043Z,100563.25
2018-07-19T16:55:54.508Z,100566.63
2018-07-19T16:58:23.080Z,100566.03
2018-07-19T17:00:51.464Z,100557.94
2018-07-19T17:03:20.208Z,100564.05
2018-07-19T17:05:48.661Z,100568.70
2018-07-19T17:08:17.067Z,100567.16
2018-07-19T17:10:45.653Z,100563.11
2018-07-19T17:13:14.030Z,100568.02
2018-07-19T17:15:42.476Z,100565.41
2018-07-19T17:18:11.139Z,100565.41
2018-07-19T17:20:39.832Z,100563.27
2018-07-19T17:23:08.314Z,100563.38
2018-07-19T17:25:36.784Z,100564.70
2018-07-19T17:28:05.273Z,100563.52
2018-07-19T17:30:33.664Z,100560.75
2018-07-19T17:33:02.110Z,100565.87
2018-07-19T17:35:30.448Z,100564.45
2018-07-19T17:37:58.857Z,100567.07
2018-07-19T17:40:27.355Z,100560.17
2018-07-19T17:42:56.138Z,100561.84
2018-07-19T17:45:24.545Z,100558.29
2018-07-19T17:47:52.942Z,100567.70
2018-07-19T17:50:21.362Z,100565.06
2018-07-19T17:52:49.974Z,100565.06
2018-07-19T17:55:18.380Z,100573.05
2018-07-19T17:57:46.826Z,100577.34
2018-07-19T18:00:15.245Z,100569.71
2018-07-19T18:02:43.723Z,100571.98
2018-07-19T18:05:12.099Z,100577.11
2018-07-19T18:07:40.441Z,100572.10
2018-07-19T18:10:08.885Z,100573.40
2018-07-19T18:12:37.233Z,100564.92
2018-07-19T18:15:05.817Z,100575.89
2018-07-19T18:17:34.263Z,100568.36
2018-07-19T18:20:02.669Z,100562.97
2018-07-19T18:22:31.106Z,100562.26
2018-07-19T18:24:59.523Z,100564.98
2018-07-19T18:27:28.027Z,100575.92
2018-07-19T18:29:58.356Z,100571.52
2018-07-19T18:32:26.774Z,100566.86
2018-07-19T18:34:55.257Z,100571.14
2018-07-19T18:37:23.764Z,100570.18
2018-07-19T18:39:52.199Z,100571.80
2018-07-19T18:42:20.841Z,100571.08
2018-07-19T18:44:49.295Z,100572.84
2018-07-19T18:47:17.695Z,100569.74
2018-07-19T18:49:46.136Z,100574.48
2018-07-19T18:52:14.543Z,100570.50
2018-07-19T18:54:42.987Z,100570.59
2018-07-19T18:57:11.422Z,100566.39
2018-07-19T18:59:39.868Z,100581.70
2018-07-19T19:02:08.271Z,100569.16
2018-07-19T19:04:36.680Z,100580.58
2018-07-19T19:07:05.044Z,100582.23
2018-07-19T19:09:33.446Z,100582.41
2018-07-19T19:12:01.885Z,100585.95
2018-07-19T19:14:30.324Z,100579.40
2018-07-19T19:16:58.716Z,100578.14
2018-07-19T19:19:27.132Z,100580.01
2018-07-19T19:21:55.541Z,100586.56
2018-07-19T19:24:23.912Z,100579.67
2018-07-19T19:26:52.323Z,100590.55
2018-07-19T19:29:20.804Z,100591.20
2018-07-19T19:31:49.211Z,100590.56
2018-07-19T19:34:17.646Z,100594.91
2018-07-19T19:36:46.058Z,100598.83
2018-07-19T19:39:14.631Z,100601.50
2018-07-19T19:41:43.473Z,100597.61
2018-07-19T19:44:12.424Z,100602.33
2018-07-19T19:46:40.901Z,100602.22
2018-07-19T19:49:09.325Z,100607.89
2018-07-19T19:51:37.945Z,100603.14
2018-07-19T19:54:06.481Z,100607.47
2018-07-19T19:56:34.943Z,100607.21
2018-07-19T19:59:03.623Z,100608.28
2018-07-19T20:01:32.133Z,100610.25
2018-07-19T20:04:00.592Z,100602.34
2018-07-19T20:06:29.009Z,100609.39
2018-07-19T20:08:57.444Z,100603.44
2018-07-19T20:11:25.930Z,100606.36
2018-07-19T20:13:54.500Z,100604.74
2018-07-19T20:16:22.974Z,100606.94
2018-07-19T20:18:51.510Z,100607.16
2018-07-19T20:21:19.951Z,100601.38
2018-07-19T20:23:48.394Z,100603.33
2018-07-19T20:26:16.880Z,100604.24
2018-07-19T20:28:45.301Z,100605.37
2018-07-19T20:31:13.713Z,100604.00
2018-07-19T20:33:42.083Z,100600.45
2018-07-19T20:36:10.459Z,100599.64
2018-07-19T20:38:38.889Z,100596.11
2018-07-19T20:41:07.380Z,100597.05
2018-07-19T20:43:35.869Z,100598.72
2018-07-19T20:46:04.473Z,100599.28
2018-07-19T20:48:32.920Z,100596.48
2018-07-19T20:51:01.446Z,100591.56
2018-07-19T20:53:29.973Z,100599.82
2018-07-19T20:55:58.388Z,100599.70
2018-07-19T20:58:26.781Z,100592.42
2018-07-19T21:00:55.283Z,100599.59
2018-07-19T21:03:23.701Z,100595.66
2018-07-19T21:05:52.148Z,100591.67
2018-07-19T21:08:20.521Z,100596.75
2018-07-19T21:10:48.990Z,100595.36
2018-07-19T21:13:17.531Z,100589.10
2018-07-19T21:15:46.040Z,100596.70
2018-07-19T21:18:14.536Z,100596.54
2018-07-19T21:20:42.984Z,100602.84
2018-07-19T21:23:11.426Z,100596.48
2018-07-19T21:25:39.813Z,100597.50
2018-07-19T21:28:08.234Z,100593.88
2018-07-19T21:30:37.272Z,100595.33
2018-07-19T21:33:06.670Z,100593.27
2018-07-19T21:35:35.078Z,100593.19
2018-07-19T21:38:03.644Z,100591.05
2018-07-19T21:40:32.377Z,100586.86
2018-07-19T21:43:01.572Z,100585.87
2018-07-19T21:45:30.025Z,100589.28
2018-07-19T21:47:58.462Z,100589.75
2018-07-19T21:50:26.882Z,100585.13
2018-07-19T21:52:55.276Z,100585.33
2018-07-19T21:55:24.096Z,100574.25
2018-07-19T21:57:52.579Z,100586.42
2018-07-19T22:00:21.046Z,100582.52
2018-07-19T22:02:49.435Z,100581.77
2018-07-19T22:05:18.229Z,100583.95
2018-07-19T22:07:46.681Z,100586.02
2018-07-19T22:10:15.170Z,100584.92
2018-07-19T22:12:43.652Z,100585.94
2018-07-19T22:15:12.063Z,100583.48
2018-07-19T22:17:40.547Z,100571.55
2018-07-19T22:20:09.094Z,100574.18
2018-07-19T22:22:38.903Z,100569.02
2018-07-19T22:25:08.819Z,100572.63
2018-07-19T22:27:37.411Z,100568.73
2018-07-19T22:30:06.244Z,100570.78
2018-07-19T22:32:34.653Z,100576.95
2018-07-19T22:35:03.125Z,100570.64
2018-07-19T22:37:31.532Z,100578.44
2018-07-19T22:40:00.323Z,100584.33
2018-07-19T22:42:28.954Z,100593.20
2018-07-19T22:44:58.039Z,100591.30
2018-07-19T22:47:26.889Z,100591.70
2018-07-19T22:49:55.901Z,100594.38
2018-07-19T22:52:24.856Z,100592.31
2018-07-19T22:54:53.250Z,100592.25
2018-07-19T22:57:22.196Z,100590.25
2018-07-19T22:59:50.637Z,100592.03
2018-07-19T23:02:19.580Z,100588.88
2018-07-19T23:04:48.439Z,100587.34
2018-07-19T23:07:16.858Z,100589.83
2018-07-19T23:09:45.305Z,100589.41
2018-07-19T23:12:14.036Z,100590.94
2018-07-19T23:14:42.481Z,100582.09
2018-07-19T23:17:11.001Z,100585.52
2018-07-19T23:19:39.415Z,100583.34
2018-07-19T23:22:07.957Z,100583.94
2018-07-19T23:24:36.441Z,100586.92
2018-07-19T23:27:05.129Z,100587.98
2018-07-19T23:29:33.813Z,100586.58
2018-07-19T23:32:02.937Z,100583.08
2018-07-19T23:34:31.771Z,100581.77
2018-07-19T23:37:04.149Z,100584.43
2018-07-19T23:39:38.203Z,100581.29
2018-07-19T23:42:13.860Z,100579.30
2018-07-19T23:45:01.411Z,100584.45
2018-07-19T23:47:33.310Z,100585.75
2018-07-19T23:50:01.891Z,100586.95
2018-07-19T23:52:30.304Z,100580.38
2018-07-19T23:54:58.881Z,100584.63
2018-07-19T23:57:27.275Z,100582.56
2018-07-19T23:59:55.686Z,100580.28
